EmailTwitter


Observations de surface / Québec / LFKJ

Régions: Québec | Canada | États-Unis | Europe | France | UK | Elsewhere
Station
Affichage
Infos & localisation pour LFKJ | Aide pour décoder les METARs

Observations prises le 2017-02-23 à 04H30 UTC à AJACCIO/CAMPO OR, FR (LFKJ)

Etat du ciel: couvert.

Température: 10.0 Celsius

Point de rosée: 8.0 Celsius

Humidité relative: 87%

Vents: Est-nord-est à 7 km/h ou 4 noeuds.

Pression au niveau moyen de la mer: 101.90 kilopascals.

Visibilité horizontale: 6.21 milles terrestres ou 9.94 kilomètres.

Hauteur du plafond: 640 mètres ( 2100 pieds ).

Observation METAR:

LFKJ 230430Z AUTO 07004KT 040V100 9999 OVC021 10/08 Q1019 BECMG 23010KT 4000 BR=